Ride Results

Big Country (24-04-1988)
Ride distance: 80.0 km

Outcomes - Big Country (24-04-1988)
Division No. of Entries Retired / DNE Completed Withdrawn Ineligible V/O Percentage Completed
HW 15 - 8 1 2 4 53.33%
MW 36 - 18 3 - 15 50.00%
LW 18 - 11 2 1 4 61.11%
JN 4 - 1 1 - 2 25.00%
Totals 73 - 38 7 3 25 52.05%
Results - Big Country (24-04-1988)
No. Rider Horse Place Time Leg Speeds Total
Km/Hr
H/R bpm
Heavyweight
5565 Paul Krause Sam 1 5:31:27 18.1, 12.0 14.48 34, 45, 59 (Avg:52)
5585 David Butcher Domil 2 5:32:06 16.7, 12.6 14.45 35, 51, 59 (Avg:55)
5583 Terry May Heaths Faisal 3 5:42:50 18.1, 11.3 14.00 30, 48, 59 (Avg:53)
5581 Bill Standfield Eden 4 6:06:00 16.1, 11.0 13.11 37, 42, 53 (Avg:47)
5580 Harry Grice Bobby 5 6:48:00 15.7, 9.3 11.76 32, 54, 58 (Avg:56)
5569 Gordon Flaherty Sharahd Homer 6 7:28:00 14.7, 8.4 10.71 35, 44, 59 (Avg:51)
5574 Dennis Smith Torremolinos 7 7:48:00 12.8, 8.5 10.26 42, 45, 59 (Avg:52)
5577 Larry Wylie Billabong Bint Kathryn 8 8:43:00 12.1, 7.3 9.18 36, 40, 60 (Avg:50)
27 Roy Barsby Lawes Janna Lame L2 0:00:00 17.6, 7.1 - 32, 53, 56 (Avg:54)
10 Mick Ketley Sampson Out of Time L2 0:00:00 16.7, 6.3 - 42, 52 (Avg:52)
56 Errol McGuiness Olympic Park Gordon Mait Heart Rate L2 0:00:00 11.8, 7.4 - 36, 53, 67 (Avg:60)
35 Chris Pollitt Monivae Warloch Out of Time L2 0:00:00 11.7, 7.5 - 38, 42 (Avg:42)
49 Bob Standfield Tommy Heart Rate L2 0:00:00 15.5, 8.9 - 36, 52, 78 (Avg:65)
60 John Stewart Rokeby Ikarus Lame L2 0:00:00 16.3, 9.4 - 32, 47, 57 (Avg:52)
8 William Hill Lynraedon Dusk Widthdrawn L1 0:00:00 - - 31
Middleweight
5561 Matthew Krahnen Killinchy Majestic 1 5:01:00 20.1, 13.1 15.95 32, 48, 58 (Avg:53)
5562 Tom Thomsen Prince Aussie 2 (BC) 5:03:00 20.3, 12.9 15.84 36, 42, 54 (Avg:48)
5563 Paul Krahnen Thunder 3 5:29:00 19.1, 11.7 14.59 40, 48, 46 (Avg:47)
5564 Peter Miller Koob 4 5:29:05 18.3, 12.1 14.59 36, 46, 56 (Avg:51)
5566 Robert Corbett Coolmunda Trazarra 5 5:31:17 18.1, 12.0 14.49 35, 46, 60 (Avg:53)
5584 Scott Hill Craig Darroch Rhaedar 6 5:40:00 18.1, 11.5 14.12 40, 42, 53 (Avg:47)
5582 Chris Forrester Merton Limelight 7 5:53:00 17.5, 11.1 13.60 38, 50, 48 (Avg:49)
6248 Garry Beard Barfield Rackateer 8 6:41:00 17.1, 9.1 11.97 36, 48, 58 (Avg:53)
5579 Sue Smith Vanity Sun 9 6:49:00 16.1, 9.2 11.74 40, 46, 49 (Avg:47)
5578 Juanita Lamb Alvin Purple 10 6:50:00 16.7, 8.9 11.71 36, 50, 54 (Avg:52)
5567 June Petersen Abbeline Chrystel 11 7:06:00 17.5, 8.3 11.27 31, 41, 47 (Avg:44)
5568 Maurice Crombie Blue 12 7:06:05 14.6, 9.1 11.27 34, 42, 52 (Avg:47)
5573 Carmen Batterham General Lee 13 7:29:00 14.1, 8.6 10.69 36, 52, 50 (Avg:51)
5571 Lesley Deecke Panniken 13 7:29:00 11.2, 10.2 10.69 33, 40, 47 (Avg:43)
5572 Vivian Hollins Fresco 13 7:29:00 14.1, 8.6 10.69 40, 42, 52 (Avg:47)
5570 Toni Tatham Bimbi 13 7:29:00 14.9, 8.3 10.69 43, 41, 48 (Avg:44)
5575 Rosalie Coelho Little Boy 17 7:48:00 13.1, 8.3 10.26 33, 45, 45 (Avg:45)
5576 Gary Morcom Crow 18 8:11:00 10.3, 9.3 9.78 34, 48, 55 (Avg:51)
61 Peter Anderson Rutherglen Akabar Heart Rate L2 0:00:00 18.4, 10.7 - 39, 54, 66 (Avg:60)
2 Ron Bercene Sherwin Pepito Heart Rate L2 0:00:00 20.3, 11.5 - 28, 46, 65 (Avg:55)
38 Don Cornish Gundy Heart Rate L2 0:00:00 18.6, 12.0 - 40, 48, 62 (Avg:55)
7 Ron Haigh Alli Wolfie Heart Rate L2 0:00:00 14.4, 9.9 - 36, 44, 67 (Avg:55)
37 Paul Hando Strawberry Lame L2 0:00:00 15.7, 9.1 - 30, 39, 55 (Avg:47)
28 Fred Malmborg Sundown Heart Rate L2 0:00:00 16.5, 11.4 - 36, 42, 72 (Avg:57)
6 Margaret Mitchell Wombeena Trinity Heart Rate L2 0:00:00 12.1, 11.4 - 30, 44, 80 (Avg:62)
24 Jack Pollack Smokey Heart Rate L2 0:00:00 18.1, 11.6 - 38, 42, 65 (Avg:53)
18 Rob Scott Flyaway Heart Rate L2 0:00:00 15.9, 8.0 - 37, 50, 63 (Avg:56)
51 Alf Strano Donnie Heart Rate L2 0:00:00 18.8, 10.5 - 32, 54, 70 (Avg:62)
19 John Thielen Twin Tree Star Heart Rate L2 0:00:00 16.1, 9.5 - 36, 46, 70 (Avg:58)
67 Chris Vaughan Palseem Heart Rate L2 0:00:00 18.1, 11.4 - 29, 48, 66 (Avg:57)
34 Steven Vergis Digger Lame L2 0:00:00 19.0, 11.8 - 32, 47, 58 (Avg:52)
58 Rhonda Wruck Sultan Lame L2 0:00:00 15.2, 8.1 - 38, 48, 52 (Avg:50)
62 Paul Brown Talisman Gamin Widthdrawn L1 0:00:00 - - 36, 45 (Avg:45)
75 John Hattink Villeneuve Melody Widthdrawn L1 0:00:00 - - 30, 40 (Avg:40)
54 Gillian Lupton Rokeby Heather Heart Rate L1 0:00:00 17.3 - 40, 66 (Avg:66)
68 Annette Renner Sahala Hollygold Widthdrawn L1 0:00:00 - - 56, 41 (Avg:41)
Lightweight
5586 Darren Helm Strops 1 (BC) 5:06:00 19.8, 12.9 15.69 40, 39, 52 (Avg:45)
5587 Sharon Walsh Shayperil Jahana 2 5:33:43 18.6, 11.7 14.38 37, 44, 50 (Avg:47)
5588 Jenny Noffke Just Fancy 3 5:54:00 19.9, 10.2 13.56 36, 44, 54 (Avg:49)
5589 Stephanie Malmborg Roxborough Lauren 4 5:55:00 16.5, 11.4 13.52 33, 41, 59 (Avg:50)
5594 Vince Mccosker Springbrook Dallas 5 6:48:31 14.9, 9.6 11.75 40, 48, 60 (Avg:54)
5590 Helena Wilcocks Clancy Of The Overflow 5 6:48:31 14.9, 9.6 11.75 36, 45, 53 (Avg:49)
5593 Sharon Byers Commanche 7 7:28:00 14.6, 8.4 10.71 36, 42, 54 (Avg:48)
5592 Sharon Llewellyn Sattelite 8 7:29:00 12.1, 9.5 10.69 36, 40, 50 (Avg:45)
5591 Donna Renaud Stocktonvale Hephyibeh 9 7:41:00 14.0, 8.2 10.41 40, 54, 50 (Avg:52)
18570 Cindy Gray Impala 10 7:48:00 15.2, 7.7 10.26 36, 54, 57 (Avg:55)
5595 Janette Mcqueen Foxlea Emos 10 7:48:00 14.4, 7.9 10.26 36, 41, 55 (Avg:48)
9 Theresa Bartels Tarong Abaka Heart Rate L2 0:00:00 16.9, 10.3 - 32, 46, 64 (Avg:55)
73 Graham Jarrett Danny Out of Time L2 0:00:00 11.8, 7.4 - 33, 47 (Avg:47)
74 Christine Jarrett Princess Heart Rate L2 0:00:00 11.8, 7.4 - 34, 50, 63 (Avg:56)
57 Jody McGuiness Jade Heart Rate L2 0:00:00 14.6, 9.5 - 34, 49, 71 (Avg:60)
17 Ray Wort Princess Heart Rate L2 0:00:00 14.4, 9.6 - 42, 44, 70 (Avg:57)
42 Colleen Clifford Pinto Widthdrawn L1 0:00:00 - - 40, 48 (Avg:48)
40 Angela Mazzaracca Felicia Widthdrawn P/R 0:00:00 - - 36
Junior
59 Stephen Wruck Kambala Kaybra 1 5:40:00 16.9, 12.1 14.12 36, 42, 59 (Avg:50)
69 Craig Renner Edenfels Pepperina Heart Rate L2 0:00:00 18.6, 11.9 - 31, 46, 64 (Avg:55)
65 Sylvia Wallace April Lame L2 0:00:00 16.7, 9.0 - 36, 48, 58 (Avg:53)
48 Tom Moon Koran El Fateel Widthdrawn L1 0:00:00 - - 36, 51 (Avg:51)